• Join FlightAware (Why Join?)
  • Login
  • US Flag 
01:15AM EDT


 

Airport Tracker/Info


-or-


 

Live Flight TrackerFlight Track Log ✈ EJM303 ✈ 21-Apr-2013 ✈ KPBI - KBDL

Flight Track Log - Related Links

Times and Time Zones

All times are in EDT time to prevent confusion due to time zone crossing. See the EJM303 flight status page for this flight to view local times or setup timezone preferences in your user account.

Time Position Orientation Groundspeed Altitude Reporting Facility
EDT Latitude Longitude Course Direction KTS MPH feet Rate Location/Type
11:38AM 26.7389 -79.9597 57° Northeast 259 298 5,800  Level Miami Center
11:40AM 26.8419 -79.8206 50° Northeast 300 345 12,000 2,100 Climbing Miami Center
11:41AM 26.9019 -79.7428 49° Northeast 313 360 12,100 300 Climbing Miami Center
11:42AM 26.9536 -79.6647 53° Northeast 313 360 12,600 1,500 Climbing Miami Center
11:43AM 27.0693 -79.4544 53° Northeast  Level FlightAware Approximate
11:43AM 27.0053 -79.5892 52° Northeast 324 373 15,200  Level Miami Center
11:44AM 27.1470 -79.3594 57° Northeast  Level FlightAware Approximate
11:44AM 27.0756 -79.5161 43° Northeast 339 390 17,100  Level Miami Center
11:45AM 27.1686 -79.4458 34° Northeast 347 399 18,900 1,800 Climbing Miami Center
11:46AM 27.2572 -79.3917 29° Northeast 359 413 20,800 1,680 Climbing Miami Center
11:47AM 27.3581 -79.3611 15° North 366 421 22,300 1,500 Climbing Miami Center
11:48AM 27.4506 -79.3306 16° North 379 436 23,800 1,500 Climbing Miami Center
11:49AM 27.5575 -79.2975 15° North 384 442 25,400 1,260 Climbing Miami Center
11:50AM 27.6753 -79.2556 18° North 392 451 26,400 900 Climbing Miami Center
11:51AM 27.7844 -79.2203 16° North 402 463 27,200 840 Climbing Miami Center
11:52AM 27.8783 -79.2200 360° North 408 470 28,100 1,200 Climbing Miami Center
11:53AM 27.9950 -79.2294 356° North 401 461 29,600 1,260 Climbing Miami Center
11:54AM 28.1056 -79.2364 357° North 395 455 30,700 1,080 Climbing Miami Center
11:55AM 28.2306 -79.2508 354° North 406 467 31,800 900 Climbing Miami Center
11:56AM 28.3478 -79.2392 North 406 467 32,500 600 Climbing Miami Center
11:57AM 28.4650 -79.2156 10° North 412 474 33,000 240 Climbing Miami Center
11:58AM 28.5844 -79.1897 11° North 418 481 33,000 180 Level Miami Center
11:59AM 28.7081 -79.1592 12° North 434 499 33,400 900 Climbing Miami Center
12:00PM 28.8378 -79.1383 North 449 517 34,800 780 Climbing Miami Center
12:01PM 28.9572 -79.1075 13° North 449 517 35,000 60 Climbing Miami Center
12:02PM 29.0828 -79.0817 10° North 449 517 35,000  Level Miami Center
12:03PM 29.2208 -79.0581 North 465 535 35,000 240 Level Miami Center
12:04PM 29.3403 -79.0247 14° North 470 541 35,500 480 Climbing Miami Center
12:05PM 29.4700 -78.9989 10° North 465 535 36,000 540 Climbing Miami Center
12:07PM 29.6669 -78.9489 12° North 463 533 37,000 540 Climbing Jacksonville Center
12:08PM 29.7872 -78.9203 12° North 456 525 37,500 480 Climbing Jacksonville Center
12:09PM 29.9139 -78.9006 North 448 516 38,100 540 Climbing Jacksonville Center
12:10PM 30.0592 -78.8706 10° North 443 510 38,800 420 Climbing Jacksonville Center
12:11PM 30.1728 -78.8372 14° North 437 503 39,000 60 Climbing Jacksonville Center
12:12PM 30.3028 -78.7908 17° North 435 501 39,000  Level Jacksonville Center
12:13PM 30.4225 -78.7469 18° North 440 506 39,000  Level Jacksonville Center
12:14PM 30.5442 -78.7008 18° North 448 516 39,000  Level Jacksonville Center
12:15PM 30.6636 -78.6569 18° North 460 529 39,000  Level Jacksonville Center
12:16PM 30.7875 -78.6103 18° North 455 524 39,000  Level Jacksonville Center
12:17PM 30.9111 -78.5636 18° North 455 524 39,000  Level Jacksonville Center
12:18PM 31.0350 -78.5214 16° North 461 531 39,000  Level Jacksonville Center
12:19PM 31.1586 -78.4744 18° North 456 525 39,000  Level Jacksonville Center
12:20PM 31.2842 -78.4272 18° North 462 532 39,000  Level Jacksonville Center
12:21PM 31.4097 -78.3750 20° North 455 524 39,000  Level Jacksonville Center
12:22PM 31.5375 -78.3297 17° North 455 524 39,000  Level Jacksonville Center
12:23PM 31.6631 -78.2822 18° North 468 539 39,000  Level Jacksonville Center
12:24PM 31.7883 -78.2294 20° North 473 544 39,000  Level Jacksonville Center
12:25PM 31.9161 -78.1814 18° North 473 544 39,000  Level Jacksonville Center
12:26PM 32.0417 -78.1333 18° North 473 544 39,000  Level Jacksonville Center
12:27PM 32.1692 -78.0825 19° North 473 544 39,000  Level Jacksonville Center
12:28PM 32.2947 -78.0392 16° North 473 544 39,000  Level Jacksonville Center
12:29PM 32.4242 -77.9831 20° North 473 544 39,000  Level Jacksonville Center
12:30PM 32.5517 -77.9342 18° North 473 544 39,000  Level Jacksonville Center
12:31PM 32.6811 -77.8853 18° North 473 544 39,000  Level Jacksonville Center
12:32PM 32.8086 -77.8361 18° North 473 544 39,000  Level Jacksonville Center
12:33PM 32.9361 -77.7869 18° North 473 544 39,000  Level Jacksonville Center
12:34PM 33.0656 -77.7372 18° North 473 544 39,000  Level Jacksonville Center
12:36PM 33.2506 -77.6650 18° North 467 537 39,000  Level Washington Center
12:37PM 33.3808 -77.6111 19° North 472 543 39,000  Level Washington Center
12:38PM 33.5089 -77.5592 19° North 477 549 39,000  Level Washington Center
12:39PM 33.6392 -77.5075 18° North 477 549 39,000  Level Washington Center
12:40PM 33.7714 -77.4556 18° North 487 560 39,000  Level Washington Center
12:41PM 33.9142 -77.4011 18° North 487 560 39,000  Level Washington Center
12:42PM 34.0442 -77.3464 19° North 487 560 39,000 -60 Level Washington Center
12:43PM 34.1764 -77.2939 18° North 487 560 38,900  Descending Washington Center
12:44PM 34.3064 -77.2414 18° North 487 560 39,000  Climbing Washington Center
12:45PM 34.4367 -77.1861 19° North 487 560 39,000  Level Washington Center
12:46PM 34.5686 -77.1356 18° North 487 560 39,000  Level Washington Center
12:47PM 34.7008 -77.0800 19° North 487 560 39,000  Level Washington Center
12:48PM 34.8331 -77.0267 18° North 493 567 39,000  Level Washington Center
12:49PM 34.9672 -76.9758 17° North 493 567 39,000  Level Washington Center
12:50PM 35.0992 -76.9172 20° North 493 567 39,000  Level Washington Center
12:51PM 35.2167 -76.8658 20° North 493 567 39,000  Level Washington Center
12:52PM 35.3508 -76.8092 19° North 498 573 39,000  Level Washington Center
12:53PM 35.4953 -76.7503 18° North 498 573 39,000  Level Washington Center
12:54PM 35.6294 -76.6933 19° North 498 573 39,000  Level Washington Center
12:55PM 35.7592 -76.6389 19° North 503 579 39,000  Level Washington Center
12:56PM 35.8933 -76.5817 19° North 503 579 39,000  Level Washington Center
12:57PM 36.0250 -76.5294 18° North 503 579 39,000 -60 Level Washington Center
12:58PM 36.1592 -76.4719 19° North 503 579 38,900 360 Descending Washington Center
12:59PM 36.2867 -76.4167 19° North 498 573 39,800 900 Climbing Washington Center
01:00PM 36.4081 -76.3661 19° North 480 552 40,700 600 Climbing Washington Center
01:01PM 36.5272 -76.3156 19° North 461 531 41,000 120 Climbing Washington Center
01:02PM 36.6486 -76.2650 18° North 453 521 41,000  Level Washington Center
01:03PM 36.7658 -76.2117 20° North 453 521 41,000  Level Washington Center
01:04PM 36.8892 -76.1553 20° North 453 521 41,000  Level Washington Center
01:05PM 37.0167 -76.1069 17° North 458 527 41,000  Level Washington Center
01:06PM 37.1397 -76.0531 19° North 463 533 41,000  Level Washington Center
01:07PM 37.2631 -75.9989 19° North 463 533 41,000  Level Washington Center
01:08PM 37.3883 -75.9447 19° North 468 539 41,000  Level Washington Center
01:09PM 37.5117 -75.8903 19° North 468 539 41,000  Level Washington Center
01:10PM 37.6389 -75.8358 19° North 468 539 41,000  Level Washington Center
01:11PM 37.7642 -75.7808 19° North 468 539 41,000  Level Washington Center
01:12PM 37.8894 -75.7233 20° North 468 539 41,000  Level Washington Center
01:13PM 38.0147 -75.6656 20° North 468 539 41,000  Level Washington Center
01:14PM 38.1253 -75.6103 21° North 468 539 41,000  Level Washington Center
01:15PM 38.2522 -75.5547 19° North 468 539 41,000  Level Washington Center
01:16PM 38.3775 -75.5017 18° North 468 539 41,000  Level Washington Center
01:17PM 38.5044 -75.4458 19° North 468 539 41,000  Level Washington Center
01:18PM 38.6317 -75.4003 16° North 468 539 41,000  Level Washington Center
01:19PM 38.7608 -75.3467 18° North 473 544 41,000  Level Washington Center
01:20PM 38.8753 -75.2556 32° Northeast 478 550 41,000  Level Washington Center
01:21PM 38.9853 -75.1483 37° Northeast 483 556 41,000  Level Washington Center
01:22PM 39.0953 -75.0406 37° Northeast 490 564 41,000  Level Washington Center
01:23PM 39.2033 -74.9300 38° Northeast 490 564 41,000 -600 Level Washington Center
01:24PM 39.3131 -74.8217 37° Northeast 490 564 39,900 -1,620 Descending Washington Center
01:25PM 39.4206 -74.7103 39° Northeast 490 564 37,800 -2,100 Descending Washington Center
01:26PM 39.6164 -74.5142 38° Northeast 460 529 34,100 -1,980 Descending New York Center
01:27PM 39.7156 -74.4142 38° Northeast 478 550 32,400 -1,860 Descending New York Center
01:28PM 39.8250 -74.3064 37° Northeast 488 562 30,500 -1,980 Descending New York Center
01:29PM 39.9347 -74.1928 38° Northeast 493 567 28,500 -2,040 Descending New York Center
01:30PM 40.0464 -74.0789 38° Northeast 504 580 26,500 -1,740 Descending New York Center
01:31PM 40.1517 -73.9700 38° Northeast 499 574 25,000 -780 Descending New York Center
01:32PM 40.2586 -73.8633 37° Northeast 488 562 25,000 -600 Level New York Center
01:35PM 40.4958 -73.6136 39° Northeast 476 548 23,000 -960 Descending Boston Center
01:36PM 40.6158 -73.4900 38° Northeast 465 535 21,800 -1,500 Descending Boston Center
01:37PM 40.7064 -73.3900 40° Northeast 438 504 20,100 -1,440 Descending Boston Center
01:38PM 40.7986 -73.3036 35° Northeast 418 481 19,000 -1,020 Descending Boston Center
01:39PM 40.8847 -73.2033 41° Northeast 413 475 18,100 -1,080 Descending Boston Center
01:40PM 40.9708 -73.0997 42° Northeast 413 475 16,700 -1,620 Descending Boston Center
01:41PM 41.0422 -73.0153 42° Northeast 389 448 15,100 -2,340 Descending Boston Center
01:41PM 41.0717 -72.9853 38° Northeast 406 467 14,400 -1,740 Descending Boston Center
01:42PM 41.1261 -72.9194 42° Northeast 356 410 13,200 -1,440 Descending Boston Center
01:43PM 41.2014 -72.8319 41° Northeast 332 382 11,700 -1,080 Descending Boston Center
01:44PM 41.2703 -72.7494 42° Northeast 310 357 11,000 -600 Descending Boston Center
01:45PM 41.3497 -72.7139 19° North 300 345 10,600 -480 Descending Boston Center
01:46PM 41.4289 -72.6753 20° North 289 333 10,000 -840 Descending Boston Center
01:47PM 41.4978 -72.6453 18° North 277 319 9,000 -1,560 Descending Boston Center
01:48PM 41.5728 -72.6094 20° North 274 315 7,000 -2,040 Descending Boston Center
01:49PM 41.6417 -72.5983 North 250 288 4,900 -1,440 Descending Boston Center
01:50PM 41.7083 -72.5931 North 240 276 4,100 -660 Descending Boston Center
01:51PM 41.7750 -72.5931 360° North 224 258 3,600 -720 Descending Boston Center
01:52PM 41.8333 -72.5933 360° North 224 258 2,700 -720 Descending Boston Center
01:53PM 41.8814 -72.6131 343° North 190 219 2,300 -660 Descending Boston Center
01:53PM 41.8856 -72.6214 304° West 148 170 1,900 -1,320 Descending Boston Center
01:54PM 41.9083 -72.6492 318° Northwest 149 171 1,000 -1,200 Descending Boston Center
01:54PM 41.9125 -72.6606 296° West 151 174 700 -1,080 Descending Boston Center
01:57PM 41.9333 -72.6833 315° West  Level FlightAware Approximate
02:04PM 41.9392 -72.6834 315° West  Level Estimated
02:05PM 41.9333 -72.6833 315° West  Level FlightAware Approximate